createdAt,value
2023-01-28T00:00:07.186Z,100865.10
2023-01-28T00:02:55.725Z,100866.75
2023-01-28T00:05:24.427Z,100871.30
2023-01-28T00:07:53.563Z,100871.17
2023-01-28T00:10:22.355Z,100873.95
2023-01-28T00:12:51.552Z,100871.23
2023-01-28T00:15:20.332Z,100866.72
2023-01-28T00:17:49.121Z,100868.24
2023-01-28T00:20:18.414Z,100872.54
2023-01-28T00:22:52.098Z,100870.74
2023-01-28T00:25:21.642Z,100864.47
2023-01-28T00:27:50.915Z,100866.09
2023-01-28T00:30:20.120Z,100866.29
2023-01-28T00:32:48.897Z,100865.83
2023-01-28T00:35:18.695Z,100862.47
2023-01-28T00:37:47.831Z,100859.11
2023-01-28T00:40:17.971Z,100860.04
2023-01-28T00:42:46.740Z,100864.09
2023-01-28T00:45:16.521Z,100861.39
2023-01-28T00:47:45.609Z,100863.55
2023-01-28T00:50:15.402Z,100866.52
2023-01-28T00:52:45.033Z,100863.89
2023-01-28T00:55:14.121Z,100863.47
2023-01-28T00:57:44.237Z,100862.58
2023-01-28T01:00:13.211Z,100857.02
2023-01-28T01:02:42.335Z,100862.20
2023-01-28T01:05:11.623Z,100862.77
2023-01-28T01:07:43.524Z,100859.44
2023-01-28T01:10:14.564Z,100860.09
2023-01-28T01:12:43.518Z,100855.20
2023-01-28T01:15:13.167Z,100855.33
2023-01-28T01:17:47.679Z,100859.73
2023-01-28T01:20:19.650Z,100867.08
2023-01-28T01:22:48.627Z,100870.65
2023-01-28T01:25:19.229Z,100874.98
2023-01-28T01:27:50.587Z,100874.38
2023-01-28T01:30:21.007Z,100875.23
2023-01-28T01:32:50.012Z,100876.05
2023-01-28T01:35:18.854Z,100876.58
2023-01-28T01:37:48.085Z,100878.06
2023-01-28T01:40:17.918Z,100881.79
2023-01-28T01:42:46.602Z,100880.17
2023-01-28T01:45:15.915Z,100889.94
2023-01-28T01:47:48.899Z,100891.27
2023-01-28T01:50:27.814Z,100895.77
2023-01-28T01:53:02.142Z,100900.59
2023-01-28T01:55:32.316Z,100901.56
2023-01-28T01:58:04.600Z,100904.40
2023-01-28T02:00:33.425Z,100900.31
2023-01-28T02:03:02.543Z,100904.49
2023-01-28T02:05:31.070Z,100905.98
2023-01-28T02:08:20.029Z,100908.74
2023-01-28T02:11:08.074Z,100911.21
2023-01-28T02:13:42.895Z,100909.38
2023-01-28T02:16:12.218Z,100910.42
2023-01-28T02:18:41.096Z,100909.08
2023-01-28T02:21:39.589Z,100911.23
2023-01-28T02:24:17.925Z,100910.21
2023-01-28T02:27:07.561Z,100914.61
2023-01-28T02:29:49.047Z,100912.85
2023-01-28T02:32:17.753Z,100912.45
2023-01-28T02:34:51.876Z,100919.11
2023-01-28T02:37:33.937Z,100914.98
2023-01-28T02:40:28.072Z,100913.56
2023-01-28T02:42:58.474Z,100911.79
2023-01-28T02:45:50.797Z,100917.92
2023-01-28T02:48:22.452Z,100915.67
2023-01-28T02:51:37.633Z,100917.56
2023-01-28T02:54:21.464Z,100914.48
2023-01-28T02:57:16.491Z,100921.14
2023-01-28T03:00:03.477Z,100919.38
2023-01-28T03:02:32.507Z,100920.23
2023-01-28T03:05:26.676Z,100916.66
2023-01-28T03:07:55.948Z,100917.84
2023-01-28T03:10:26.838Z,100917.13
2023-01-28T03:13:16.072Z,100915.90
2023-01-28T03:16:07.627Z,100921.71
2023-01-28T03:19:04.338Z,100921.84
2023-01-28T03:21:54.414Z,100918.80
2023-01-28T03:24:51.890Z,100920.91
2023-01-28T03:27:57.106Z,100923.97
2023-01-28T03:30:58.452Z,100923.27
2023-01-28T03:33:55.501Z,100921.58
2023-01-28T03:36:43.649Z,100919.50
2023-01-28T03:39:24.941Z,100922.30
2023-01-28T03:42:05.401Z,100917.93
2023-01-28T03:44:50.256Z,100921.16
2023-01-28T03:47:27.541Z,100920.17
2023-01-28T03:49:57.353Z,100926.96
2023-01-28T03:52:29.258Z,100924.48
2023-01-28T03:55:14.437Z,100921.77
2023-01-28T03:57:45.223Z,100922.34
2023-01-28T04:00:18.594Z,100926.59
2023-01-28T04:02:47.561Z,100928.14
2023-01-28T04:05:20.601Z,100929.11
2023-01-28T04:07:52.177Z,100931.05
2023-01-28T04:10:41.826Z,100931.29
2023-01-28T04:13:18.716Z,100934.48
2023-01-28T04:15:48.653Z,100935.78
2023-01-28T04:18:17.828Z,100941.23
2023-01-28T04:20:49.419Z,100935.54
2023-01-28T04:23:18.792Z,100937.42
2023-01-28T04:25:51.564Z,100940.55
2023-01-28T04:28:21.176Z,100942.38
2023-01-28T04:30:49.985Z,100941.86
2023-01-28T04:33:51.612Z,100946.11
2023-01-28T04:36:36.988Z,100950.61
2023-01-28T04:39:25.841Z,100949.95
2023-01-28T04:42:17.258Z,100953.64
2023-01-28T04:44:56.292Z,100958.11
2023-01-28T04:48:00.434Z,100963.39
2023-01-28T04:50:52.454Z,100960.73
2023-01-28T04:53:37.311Z,100959.69
2023-01-28T04:56:24.718Z,100960.83
2023-01-28T04:58:53.417Z,100963.39
2023-01-28T05:01:22.111Z,100960.52
2023-01-28T05:03:51.913Z,100963.20
2023-01-28T05:06:25.323Z,100970.13
2023-01-28T05:08:59.209Z,100969.88
2023-01-28T05:11:28.935Z,100969.60
2023-01-28T05:14:02.821Z,100966.30
2023-01-28T05:16:37.047Z,100969.45
2023-01-28T05:19:05.801Z,100965.73
2023-01-28T05:21:37.999Z,100968.89
2023-01-28T05:24:11.841Z,100971.65
2023-01-28T05:26:40.504Z,100976.36
2023-01-28T05:29:09.690Z,100976.39
2023-01-28T05:31:38.492Z,100978.70
2023-01-28T05:34:07.394Z,100981.08
2023-01-28T05:36:36.372Z,100991.11
2023-01-28T05:39:16.023Z,100995.13
2023-01-28T05:41:45.004Z,100997.86
2023-01-28T05:44:14.409Z,100997.25
2023-01-28T05:47:01.219Z,100997.54
2023-01-28T05:49:46.800Z,100997.17
2023-01-28T05:52:53.828Z,100996.20
2023-01-28T05:55:27.267Z,101000.53
2023-01-28T05:57:56.150Z,101001.27
2023-01-28T06:00:26.505Z,101000.11
2023-01-28T06:02:55.692Z,101001.75
2023-01-28T06:05:25.593Z,101001.53
2023-01-28T06:07:54.392Z,101002.30
2023-01-28T06:10:23.790Z,101003.27
2023-01-28T06:12:52.570Z,101005.37
2023-01-28T06:15:41.510Z,101006.20
2023-01-28T06:18:27.836Z,101012.70
2023-01-28T06:20:56.638Z,101006.06
2023-01-28T06:23:25.309Z,101014.44
2023-01-28T06:25:55.872Z,101017.23
2023-01-28T06:28:25.344Z,101018.98
2023-01-28T06:30:54.697Z,101021.42
2023-01-28T06:33:24.571Z,101021.20
2023-01-28T06:35:53.341Z,101018.87
2023-01-28T06:38:22.060Z,101021.02
2023-01-28T06:40:56.293Z,101022.34
2023-01-28T06:43:28.738Z,101030.09
2023-01-28T06:46:00.846Z,101030.12
2023-01-28T06:48:29.670Z,101031.70
2023-01-28T06:50:58.972Z,101032.72
2023-01-28T06:53:27.647Z,101036.63
2023-01-28T06:55:56.643Z,101040.48
2023-01-28T06:58:25.556Z,101044.02
2023-01-28T07:00:54.632Z,101044.39
2023-01-28T07:03:23.515Z,101052.52
2023-01-28T07:05:52.416Z,101048.80
2023-01-28T07:08:22.032Z,101055.80
2023-01-28T07:10:50.931Z,101060.73
2023-01-28T07:13:19.484Z,101061.59
2023-01-28T07:15:49.619Z,101067.39
2023-01-28T07:18:18.498Z,101067.22
2023-01-28T07:20:47.285Z,101072.15
2023-01-28T07:23:16.277Z,101079.29
2023-01-28T07:25:45.066Z,101079.12
2023-01-28T07:28:13.950Z,101076.82
2023-01-28T07:30:43.267Z,101084.25
2023-01-28T07:33:12.346Z,101086.39
2023-01-28T07:35:40.932Z,101088.52
2023-01-28T07:38:10.752Z,101086.86
2023-01-28T07:40:40.042Z,101089.92
2023-01-28T07:43:10.471Z,101086.02
2023-01-28T07:45:41.629Z,101088.52
2023-01-28T07:48:12.960Z,101084.05
2023-01-28T07:50:41.961Z,101083.73
2023-01-28T07:53:12.519Z,101082.02
2023-01-28T07:55:42.599Z,101085.55
2023-01-28T07:58:12.568Z,101083.46
2023-01-28T08:00:42.547Z,101081.52
2023-01-28T08:03:16.166Z,101083.48
2023-01-28T08:05:49.993Z,101084.38
2023-01-28T08:08:19.350Z,101089.10
2023-01-28T08:10:48.741Z,101087.79
2023-01-28T08:13:18.666Z,101092.30
2023-01-28T08:15:47.873Z,101090.71
2023-01-28T08:18:18.171Z,101098.06
2023-01-28T08:20:48.195Z,101092.88
2023-01-28T08:23:19.720Z,101098.25
2023-01-28T08:25:49.473Z,101101.35
2023-01-28T08:28:18.873Z,101107.12
2023-01-28T08:30:48.070Z,101102.20
2023-01-28T08:33:18.636Z,101101.38
2023-01-28T08:35:47.696Z,101100.81
2023-01-28T08:38:18.116Z,101103.45
2023-01-28T08:40:47.907Z,101103.64
2023-01-28T08:43:17.532Z,101103.15
2023-01-28T08:45:46.938Z,101102.30
2023-01-28T08:48:19.429Z,101104.14
2023-01-28T08:50:49.210Z,101108.05
2023-01-28T08:53:20.277Z,101106.77
2023-01-28T08:55:49.348Z,101107.06
2023-01-28T08:58:19.477Z,101107.02
2023-01-28T09:00:48.975Z,101107.05
2023-01-28T09:03:18.778Z,101107.11
2023-01-28T09:05:47.572Z,101110.89
2023-01-28T09:08:17.397Z,101113.05
2023-01-28T09:10:46.396Z,101117.52
2023-01-28T09:13:16.645Z,101113.56
2023-01-28T09:15:45.665Z,101110.79
2023-01-28T09:18:15.182Z,101114.63
2023-01-28T09:20:44.302Z,101119.10
2023-01-28T09:23:14.444Z,101119.84
2023-01-28T09:25:43.723Z,101121.27
2023-01-28T09:28:12.499Z,101123.58
2023-01-28T09:30:41.640Z,101125.67
2023-01-28T09:33:10.491Z,101122.95
2023-01-28T09:35:39.792Z,101125.92
2023-01-28T09:38:08.597Z,101127.92
2023-01-28T09:40:40.101Z,101131.94
2023-01-28T09:43:36.671Z,101135.63
2023-01-28T09:46:06.808Z,101136.67
2023-01-28T09:48:45.903Z,101139.35
2023-01-28T09:51:44.109Z,101139.28
2023-01-28T09:54:36.332Z,101138.45
2023-01-28T09:57:09.965Z,101138.95
2023-01-28T09:59:38.917Z,101139.08
2023-01-28T10:02:30.036Z,101139.40
2023-01-28T10:05:09.029Z,101136.02
2023-01-28T10:08:08.164Z,101138.43
2023-01-28T10:10:49.437Z,101137.98
2023-01-28T10:13:56.002Z,101141.77
2023-01-28T10:16:30.346Z,101142.26
2023-01-28T10:19:05.130Z,101138.02
2023-01-28T10:21:44.632Z,101135.98
2023-01-28T10:24:19.651Z,101133.71
2023-01-28T10:26:48.940Z,101136.04
2023-01-28T10:29:36.823Z,101139.16
2023-01-28T10:32:34.937Z,101141.33
2023-01-28T10:35:04.340Z,101135.65
2023-01-28T10:37:38.157Z,101133.67
2023-01-28T10:40:14.748Z,101137.88
2023-01-28T10:42:44.633Z,101137.88
2023-01-28T10:45:26.194Z,101132.39
2023-01-28T10:48:05.002Z,101137.63
2023-01-28T10:50:35.907Z,101136.32
2023-01-28T10:53:06.743Z,101139.83
2023-01-28T10:55:51.203Z,101138.09
2023-01-28T10:58:25.615Z,101138.48
2023-01-28T11:01:00.237Z,101139.21
2023-01-28T11:03:32.907Z,101139.52
2023-01-28T11:06:03.010Z,101140.52
2023-01-28T11:08:32.209Z,101141.70
2023-01-28T11:11:03.329Z,101143.61
2023-01-28T11:13:32.354Z,101143.80
2023-01-28T11:16:19.073Z,101147.71
2023-01-28T11:18:55.570Z,101147.00
2023-01-28T11:21:30.151Z,101139.86
2023-01-28T11:24:00.817Z,101143.27
2023-01-28T11:26:38.855Z,101142.36
2023-01-28T11:29:08.687Z,101140.16
2023-01-28T11:31:44.102Z,101135.41
2023-01-28T11:34:17.452Z,101131.85
2023-01-28T11:37:06.697Z,101132.19
2023-01-28T11:39:36.094Z,101133.52
2023-01-28T11:42:23.491Z,101132.27
2023-01-28T11:44:52.731Z,101136.89
2023-01-28T11:47:28.374Z,101136.44
2023-01-28T11:50:08.725Z,101139.48
2023-01-28T11:53:07.917Z,101137.85
2023-01-28T11:55:52.180Z,101136.16
2023-01-28T11:58:33.971Z,101134.14
2023-01-28T12:01:13.473Z,101137.17
2023-01-28T12:04:15.572Z,101132.98
2023-01-28T12:07:11.709Z,101135.08
2023-01-28T12:09:57.225Z,101140.29
2023-01-28T12:12:50.961Z,101139.71
2023-01-28T12:16:14.072Z,101133.21
2023-01-28T12:19:05.453Z,101138.95
2023-01-28T12:21:52.862Z,101135.48
2023-01-28T12:24:42.958Z,101129.88
2023-01-28T12:27:38.149Z,101132.83
2023-01-28T12:30:22.340Z,101136.14
2023-01-28T12:32:50.883Z,101130.23
2023-01-28T12:35:32.906Z,101129.02
2023-01-28T12:38:40.170Z,101134.44
2023-01-28T12:41:37.329Z,101129.04
2023-01-28T12:44:11.329Z,101136.13
2023-01-28T12:46:48.155Z,101132.45
2023-01-28T12:49:31.946Z,101138.23
2023-01-28T12:52:23.959Z,101131.11
2023-01-28T12:55:12.527Z,101139.20
2023-01-28T12:57:42.440Z,101140.96
2023-01-28T13:00:40.500Z,101148.05
2023-01-28T13:03:18.260Z,101143.25
2023-01-28T13:05:51.719Z,101143.05
2023-01-28T13:08:28.129Z,101145.88
2023-01-28T13:11:01.093Z,101147.23
2023-01-28T13:13:32.839Z,101148.96
2023-01-28T13:16:02.741Z,101151.08
2023-01-28T13:18:44.600Z,101149.29
2023-01-28T13:21:24.619Z,101150.36
2023-01-28T13:24:02.611Z,101144.14
2023-01-28T13:26:43.831Z,101141.66
2023-01-28T13:29:15.859Z,101142.89
2023-01-28T13:31:52.268Z,101146.02
2023-01-28T13:34:44.144Z,101142.61
2023-01-28T13:37:38.616Z,101137.25
2023-01-28T13:40:13.232Z,101144.64
2023-01-28T13:42:42.653Z,101148.64
2023-01-28T13:45:22.931Z,101148.05
2023-01-28T13:47:55.906Z,101147.27
2023-01-28T13:50:26.498Z,101149.17
2023-01-28T13:53:05.455Z,101149.08
2023-01-28T13:55:44.563Z,101158.54
2023-01-28T13:58:26.481Z,101168.33
2023-01-28T14:01:14.943Z,101161.69
2023-01-28T14:04:29.272Z,101159.91
2023-01-28T14:07:11.509Z,101160.54
2023-01-28T14:10:08.075Z,101166.39
2023-01-28T14:13:16.656Z,101168.34
2023-01-28T14:15:57.432Z,101175.27
2023-01-28T14:18:29.881Z,101179.52
2023-01-28T14:21:02.679Z,101183.52
2023-01-28T14:23:32.819Z,101183.15
2023-01-28T14:26:35.570Z,101181.36
2023-01-28T14:29:28.518Z,101189.40
2023-01-28T14:31:57.517Z,101186.55
2023-01-28T14:34:35.309Z,101179.88
2023-01-28T14:37:15.783Z,101183.11
2023-01-28T14:39:46.190Z,101190.31
2023-01-28T14:42:20.012Z,101186.67
2023-01-28T14:45:09.596Z,101191.48
2023-01-28T14:47:41.229Z,101194.10
2023-01-28T14:50:25.906Z,101194.92
2023-01-28T14:53:00.850Z,101193.95
2023-01-28T14:55:53.988Z,101193.66
2023-01-28T14:58:32.721Z,101198.61
2023-01-28T15:01:02.080Z,101203.80
2023-01-28T15:03:31.804Z,101207.30
2023-01-28T15:06:13.211Z,101208.80
2023-01-28T15:08:42.093Z,101207.51
2023-01-28T15:11:14.967Z,101210.79
2023-01-28T15:13:46.834Z,101211.23
2023-01-28T15:16:21.999Z,101212.98
2023-01-28T15:18:51.366Z,101221.94
2023-01-28T15:21:24.689Z,101221.42
2023-01-28T15:23:57.934Z,101223.13
2023-01-28T15:26:29.082Z,101222.14
2023-01-28T15:28:58.194Z,101227.21
2023-01-28T15:31:39.511Z,101227.19
2023-01-28T15:34:17.253Z,101217.55
2023-01-28T15:36:48.017Z,101217.27
2023-01-28T15:39:20.766Z,101224.16
2023-01-28T15:41:54.293Z,101226.45
2023-01-28T15:44:43.042Z,101227.52
2023-01-28T15:47:35.910Z,101229.88
2023-01-28T15:50:07.472Z,101228.21
2023-01-28T15:52:39.077Z,101242.23
2023-01-28T15:55:21.761Z,101247.02
2023-01-28T15:57:50.706Z,101242.58
2023-01-28T16:00:20.938Z,101244.83
2023-01-28T16:02:51.909Z,101246.64
2023-01-28T16:05:35.641Z,101255.62
2023-01-28T16:08:09.707Z,101249.58
2023-01-28T16:10:38.911Z,101255.45
2023-01-28T16:13:11.690Z,101257.11
2023-01-28T16:15:55.837Z,101252.29
2023-01-28T16:18:39.611Z,101248.52
2023-01-28T16:21:13.003Z,101253.52
2023-01-28T16:23:52.133Z,101252.06
2023-01-28T16:26:27.789Z,101253.27
2023-01-28T16:28:59.715Z,101245.19
2023-01-28T16:31:29.807Z,101251.33
2023-01-28T16:33:58.640Z,101255.10
2023-01-28T16:36:29.079Z,101252.48
2023-01-28T16:41:30.510Z,101257.86
2023-01-28T16:44:01.676Z,101261.31
2023-01-28T16:46:30.674Z,101259.84
2023-01-28T16:49:00.676Z,101259.84
2023-01-28T16:51:31.451Z,101266.36
2023-01-28T16:54:00.903Z,101267.73
2023-01-28T16:56:44.502Z,101259.11
2023-01-28T16:59:16.836Z,101260.32
2023-01-28T17:01:46.875Z,101262.16
2023-01-28T17:04:17.238Z,101263.42
2023-01-28T17:06:46.652Z,101262.34
2023-01-28T17:09:15.897Z,101264.00
2023-01-28T17:11:45.249Z,101263.48
2023-01-28T17:14:15.024Z,101257.35
2023-01-28T17:16:44.125Z,101255.45
2023-01-28T17:19:13.658Z,101257.65
2023-01-28T17:21:46.694Z,101257.19
2023-01-28T17:24:17.611Z,101263.53
2023-01-28T17:26:46.575Z,101262.02
2023-01-28T17:29:15.566Z,101259.48
2023-01-28T17:31:45.145Z,101254.82
2023-01-28T17:34:14.071Z,101261.83
2023-01-28T17:36:44.094Z,101258.09
2023-01-28T17:39:14.116Z,101258.14
2023-01-28T17:41:43.612Z,101266.48
2023-01-28T17:44:15.406Z,101272.46
2023-01-28T17:46:46.511Z,101273.61
2023-01-28T17:49:16.303Z,101269.14
2023-01-28T17:51:46.046Z,101272.85
2023-01-28T17:54:17.681Z,101280.79
2023-01-28T17:56:46.472Z,101285.17
2023-01-28T17:59:17.704Z,101283.50
2023-01-28T18:01:48.337Z,101281.36
2023-01-28T18:04:17.661Z,101284.70
2023-01-28T18:06:49.132Z,101292.10
2023-01-28T18:09:19.739Z,101296.65
2023-01-28T18:11:51.951Z,101297.55
2023-01-28T18:14:22.497Z,101299.95
2023-01-28T18:16:53.602Z,101306.84
2023-01-28T18:19:22.351Z,101310.05
2023-01-28T18:21:53.391Z,101311.75
2023-01-28T18:24:29.270Z,101306.73
2023-01-28T18:27:00.268Z,101305.17
2023-01-28T18:29:31.303Z,101309.80
2023-01-28T18:32:01.675Z,101314.43
2023-01-28T18:34:33.311Z,101313.35
2023-01-28T18:37:04.525Z,101314.31
2023-01-28T18:39:35.964Z,101315.69
2023-01-28T18:42:06.480Z,101315.09
2023-01-28T18:44:38.106Z,101311.08
2023-01-28T18:47:07.998Z,101315.05
2023-01-28T18:49:37.809Z,101316.80
2023-01-28T18:52:09.012Z,101325.43
2023-01-28T18:54:39.201Z,101323.80
2023-01-28T18:57:09.292Z,101331.19
2023-01-28T18:59:39.096Z,101339.46
2023-01-28T19:02:11.071Z,101333.81
2023-01-28T19:04:40.770Z,101333.82
2023-01-28T19:07:11.888Z,101332.05
2023-01-28T19:09:44.009Z,101327.85
2023-01-28T19:12:13.868Z,101330.50
2023-01-28T19:14:44.098Z,101328.17
2023-01-28T19:17:16.251Z,101333.20
2023-01-28T19:19:45.715Z,101330.64
2023-01-28T19:22:15.811Z,101334.23
2023-01-28T19:24:45.356Z,101334.33
2023-01-28T19:27:18.814Z,101329.36
2023-01-28T19:29:49.592Z,101334.56
2023-01-28T19:32:19.452Z,101335.84
2023-01-28T19:34:49.523Z,101331.08
2023-01-28T19:37:20.196Z,101337.90
2023-01-28T19:39:50.330Z,101338.81
2023-01-28T19:42:19.830Z,101342.20
2023-01-28T19:44:51.782Z,101345.42
2023-01-28T19:47:24.022Z,101341.36
2023-01-28T19:49:53.627Z,101340.63
2023-01-28T19:52:23.234Z,101341.95
2023-01-28T19:54:53.215Z,101337.63
2023-01-28T19:57:24.092Z,101338.16
2023-01-28T19:59:54.363Z,101341.27
2023-01-28T20:02:24.408Z,101337.27
2023-01-28T20:05:00.564Z,101340.66
2023-01-28T20:07:33.405Z,101341.59
2023-01-28T20:10:03.254Z,101344.92
2023-01-28T20:12:33.498Z,101345.02
2023-01-28T20:15:05.022Z,101346.62
2023-01-28T20:17:37.936Z,101346.42
2023-01-28T20:20:08.318Z,101345.16
2023-01-28T20:22:42.785Z,101344.12
2023-01-28T20:25:13.334Z,101346.68
2023-01-28T20:27:43.664Z,101355.70
2023-01-28T20:30:13.522Z,101359.46
2023-01-28T20:32:45.142Z,101359.10
2023-01-28T20:35:16.057Z,101361.17
2023-01-28T20:37:48.793Z,101360.15
2023-01-28T20:40:18.917Z,101355.79
2023-01-28T20:42:48.850Z,101355.83
2023-01-28T20:45:19.513Z,101358.35
2023-01-28T20:47:50.511Z,101356.12
2023-01-28T20:50:19.853Z,101354.72
2023-01-28T20:52:49.542Z,101350.03
2023-01-28T20:55:20.023Z,101342.77
2023-01-28T20:57:49.880Z,101339.14
2023-01-28T21:00:21.503Z,101341.41
2023-01-28T21:02:52.983Z,101343.64
2023-01-28T21:05:22.726Z,101344.06
2023-01-28T21:07:52.852Z,101344.89
2023-01-28T21:10:22.973Z,101338.90
2023-01-28T21:12:58.075Z,101338.84
2023-01-28T21:15:27.715Z,101339.16
2023-01-28T21:17:58.554Z,101341.88
2023-01-28T21:20:28.037Z,101342.52
2023-01-28T21:22:57.142Z,101351.73
2023-01-28T21:25:28.334Z,101354.06
2023-01-28T21:27:57.918Z,101359.41
2023-01-28T21:30:31.959Z,101356.50
2023-01-28T21:33:01.181Z,101357.25
2023-01-28T21:35:29.989Z,101355.45
2023-01-28T21:37:59.620Z,101359.23
2023-01-28T21:40:28.492Z,101362.48
2023-01-28T21:42:57.622Z,101363.98
2023-01-28T21:45:26.893Z,101365.04
2023-01-28T21:47:56.281Z,101368.83
2023-01-28T21:50:25.349Z,101367.27
2023-01-28T21:52:54.173Z,101370.19
2023-01-28T21:55:23.179Z,101370.61
2023-01-28T21:58:11.727Z,101366.53
2023-01-28T22:00:41.013Z,101364.70
2023-01-28T22:03:11.476Z,101362.36
2023-01-28T22:05:40.531Z,101364.64
2023-01-28T22:08:09.219Z,101363.84
2023-01-28T22:10:38.112Z,101359.93
2023-01-28T22:13:06.875Z,101347.77
2023-01-28T22:15:35.576Z,101339.27
2023-01-28T22:18:04.273Z,101335.77
2023-01-28T22:20:33.995Z,101335.45
2023-01-28T22:23:02.873Z,101330.84
2023-01-28T22:25:35.644Z,101333.45
2023-01-28T22:28:04.735Z,101340.89
2023-01-28T22:30:33.448Z,101346.00
2023-01-28T22:33:02.111Z,101343.41
2023-01-28T22:35:30.913Z,101336.19
2023-01-28T22:37:59.695Z,101340.88
2023-01-28T22:40:28.574Z,101333.23
2023-01-28T22:42:57.092Z,101330.80
2023-01-28T22:45:25.739Z,101325.44
2023-01-28T22:47:54.425Z,101320.69
2023-01-28T22:50:23.133Z,101319.15
2023-01-28T22:52:53.353Z,101320.82
2023-01-28T22:55:22.324Z,101321.77
2023-01-28T22:57:52.349Z,101323.48
2023-01-28T23:00:21.485Z,101329.00
2023-01-28T23:02:50.252Z,101323.38
2023-01-28T23:05:19.031Z,101325.99
2023-01-28T23:07:47.812Z,101326.45
2023-01-28T23:10:17.404Z,101320.12
2023-01-28T23:12:47.692Z,101318.99
2023-01-28T23:15:35.995Z,101329.69
2023-01-28T23:18:23.393Z,101333.48
2023-01-28T23:21:18.843Z,101327.70
2023-01-28T23:24:06.376Z,101330.94
2023-01-28T23:26:35.132Z,101328.76
2023-01-28T23:29:04.020Z,101326.73
2023-01-28T23:31:32.727Z,101324.21
2023-01-28T23:34:02.214Z,101325.86
2023-01-28T23:36:31.942Z,101322.60
2023-01-28T23:39:00.931Z,101324.27
2023-01-28T23:41:29.711Z,101323.23
2023-01-28T23:43:58.375Z,101332.16
2023-01-28T23:46:38.686Z,101328.81
2023-01-28T23:49:10.111Z,101327.48
2023-01-28T23:51:38.891Z,101333.45
2023-01-28T23:54:08.489Z,101330.61
2023-01-28T23:56:37.590Z,101325.72
2023-01-28T23:59:06.381Z,101328.75
